Enterprise, Florida
Current Conditions -  °F | °C
As of 5:53 PM on Friday 24 Oct 2014 (Local Time) from KSFB Reporting Station
Few Clouds Few Clouds  
Wind Chill: 74°   Ceiling: Unl
Heat Index: 74°   Visibility: 10mi
Dew Point: 57°   Wind: 8mph
Humidity: 55%   Direction: 40°NE
Pressure: 29.92"   Gusts: NA
Location:  28.9054°N, 81.2458°W
Report Text: KSFB 242153Z 04007KT 10SM FEW044 23/14 A2992 RMK AO2 SLP131 T02330139
Loading
Personal Weather Stations






























Interactive Weather Map
Tropical Storm Tracking
New forecast layout! Learn more

10-Day Weather Forecast

Advertisements
Track Severe Weather on mobile